sensor_id;sensor_type;location;lat;lon;timestamp;P1;durP1;ratioP1;P2;durP2;ratioP2
7669;SDS011;3877;42.562;27.636;2023-03-03T00:00:49;8.47;;;5.10;;
7669;SDS011;3877;42.562;27.636;2023-03-03T00:03:17;8.40;;;4.40;;
7669;SDS011;3877;42.562;27.636;2023-03-03T00:05:47;7.60;;;4.90;;
7669;SDS011;3877;42.562;27.636;2023-03-03T00:08:15;7.40;;;4.83;;
7669;SDS011;3877;42.562;27.636;2023-03-03T00:10:42;9.97;;;4.67;;
7669;SDS011;3877;42.562;27.636;2023-03-03T00:13:14;9.40;;;4.90;;
7669;SDS011;3877;42.562;27.636;2023-03-03T00:15:43;7.23;;;5.03;;
7669;SDS011;3877;42.562;27.636;2023-03-03T00:18:20;13.53;;;5.73;;
7669;SDS011;3877;42.562;27.636;2023-03-03T00:20:52;10.47;;;5.87;;
7669;SDS011;3877;42.562;27.636;2023-03-03T00:23:22;10.17;;;6.10;;
7669;SDS011;3877;42.562;27.636;2023-03-03T00:25:54;9.60;;;5.73;;
7669;SDS011;3877;42.562;27.636;2023-03-03T00:28:23;11.97;;;5.87;;
7669;SDS011;3877;42.562;27.636;2023-03-03T00:30:52;8.83;;;5.17;;
7669;SDS011;3877;42.562;27.636;2023-03-03T00:33:27;11.43;;;5.43;;
7669;SDS011;3877;42.562;27.636;2023-03-03T00:35:58;8.10;;;5.60;;
7669;SDS011;3877;42.562;27.636;2023-03-03T00:38:46;11.53;;;6.57;;
7669;SDS011;3877;42.562;27.636;2023-03-03T00:41:15;7.60;;;5.90;;
7669;SDS011;3877;42.562;27.636;2023-03-03T00:43:48;10.67;;;5.90;;
7669;SDS011;3877;42.562;27.636;2023-03-03T00:46:15;11.37;;;5.57;;
7669;SDS011;3877;42.562;27.636;2023-03-03T00:48:46;12.77;;;6.00;;
7669;SDS011;3877;42.562;27.636;2023-03-03T00:51:27;8.50;;;5.70;;
7669;SDS011;3877;42.562;27.636;2023-03-03T00:53:55;7.90;;;5.80;;
7669;SDS011;3877;42.562;27.636;2023-03-03T00:56:23;11.53;;;6.37;;
7669;SDS011;3877;42.562;27.636;2023-03-03T00:58:51;12.70;;;6.23;;
7669;SDS011;3877;42.562;27.636;2023-03-03T01:01:19;10.23;;;5.33;;
7669;SDS011;3877;42.562;27.636;2023-03-03T01:03:47;8.77;;;5.53;;
7669;SDS011;3877;42.562;27.636;2023-03-03T01:06:14;9.40;;;6.20;;
7669;SDS011;3877;42.562;27.636;2023-03-03T01:08:41;9.07;;;5.73;;
7669;SDS011;3877;42.562;27.636;2023-03-03T01:11:09;10.90;;;5.57;;
7669;SDS011;3877;42.562;27.636;2023-03-03T01:13:40;9.20;;;5.77;;
7669;SDS011;3877;42.562;27.636;2023-03-03T01:16:09;12.47;;;5.40;;
7669;SDS011;3877;42.562;27.636;2023-03-03T01:18:37;8.07;;;5.07;;
7669;SDS011;3877;42.562;27.636;2023-03-03T01:21:07;9.43;;;5.17;;
7669;SDS011;3877;42.562;27.636;2023-03-03T01:23:35;11.60;;;6.30;;
7669;SDS011;3877;42.562;27.636;2023-03-03T01:26:02;9.83;;;6.10;;
7669;SDS011;3877;42.562;27.636;2023-03-03T01:28:31;8.13;;;5.70;;
7669;SDS011;3877;42.562;27.636;2023-03-03T01:30:59;7.83;;;5.53;;
7669;SDS011;3877;42.562;27.636;2023-03-03T01:33:28;7.07;;;5.43;;
7669;SDS011;3877;42.562;27.636;2023-03-03T01:35:55;7.20;;;5.17;;
7669;SDS011;3877;42.562;27.636;2023-03-03T01:38:24;7.17;;;5.20;;
7669;SDS011;3877;42.562;27.636;2023-03-03T01:40:52;8.00;;;5.10;;
7669;SDS011;3877;42.562;27.636;2023-03-03T01:43:20;8.47;;;5.40;;
7669;SDS011;3877;42.562;27.636;2023-03-03T01:49:00;9.17;;;5.10;;
7669;SDS011;3877;42.562;27.636;2023-03-03T01:51:33;7.37;;;5.20;;
7669;SDS011;3877;42.562;27.636;2023-03-03T01:54:05;10.67;;;5.23;;
7669;SDS011;3877;42.562;27.636;2023-03-03T01:56:37;12.33;;;4.90;;
7669;SDS011;3877;42.562;27.636;2023-03-03T01:59:06;7.37;;;4.70;;
7669;SDS011;3877;42.562;27.636;2023-03-03T02:01:38;8.83;;;4.93;;
7669;SDS011;3877;42.562;27.636;2023-03-03T02:04:07;8.33;;;4.97;;
7669;SDS011;3877;42.562;27.636;2023-03-03T02:06:36;7.43;;;4.80;;
7669;SDS011;3877;42.562;27.636;2023-03-03T02:09:09;9.83;;;5.63;;
7669;SDS011;3877;42.562;27.636;2023-03-03T02:11:41;6.27;;;4.50;;
7669;SDS011;3877;42.562;27.636;2023-03-03T02:14:10;7.80;;;4.60;;
7669;SDS011;3877;42.562;27.636;2023-03-03T02:16:38;8.20;;;4.80;;
7669;SDS011;3877;42.562;27.636;2023-03-03T02:19:07;11.13;;;5.20;;
7669;SDS011;3877;42.562;27.636;2023-03-03T02:21:44;8.83;;;5.07;;
7669;SDS011;3877;42.562;27.636;2023-03-03T02:24:15;7.80;;;4.80;;
7669;SDS011;3877;42.562;27.636;2023-03-03T02:26:50;7.00;;;5.00;;
7669;SDS011;3877;42.562;27.636;2023-03-03T02:29:17;8.30;;;4.90;;
7669;SDS011;3877;42.562;27.636;2023-03-03T02:31:45;8.50;;;4.73;;
7669;SDS011;3877;42.562;27.636;2023-03-03T02:34:13;6.03;;;4.67;;
7669;SDS011;3877;42.562;27.636;2023-03-03T02:36:40;11.00;;;4.60;;
7669;SDS011;3877;42.562;27.636;2023-03-03T02:39:08;8.07;;;4.90;;
7669;SDS011;3877;42.562;27.636;2023-03-03T02:41:40;12.30;;;4.90;;
7669;SDS011;3877;42.562;27.636;2023-03-03T02:44:13;7.53;;;4.43;;
7669;SDS011;3877;42.562;27.636;2023-03-03T02:46:42;9.60;;;5.00;;
7669;SDS011;3877;42.562;27.636;2023-03-03T02:49:11;9.73;;;5.60;;
7669;SDS011;3877;42.562;27.636;2023-03-03T02:51:40;6.00;;;4.53;;
7669;SDS011;3877;42.562;27.636;2023-03-03T02:54:08;9.83;;;5.20;;
7669;SDS011;3877;42.562;27.636;2023-03-03T02:56:36;10.53;;;5.03;;
7669;SDS011;3877;42.562;27.636;2023-03-03T02:59:04;11.50;;;5.13;;
7669;SDS011;3877;42.562;27.636;2023-03-03T03:01:33;9.50;;;4.60;;
7669;SDS011;3877;42.562;27.636;2023-03-03T03:04:02;10.63;;;4.80;;
7669;SDS011;3877;42.562;27.636;2023-03-03T03:06:32;8.50;;;4.43;;
7669;SDS011;3877;42.562;27.636;2023-03-03T03:08:59;9.77;;;4.67;;
7669;SDS011;3877;42.562;27.636;2023-03-03T03:11:26;9.90;;;4.70;;
7669;SDS011;3877;42.562;27.636;2023-03-03T03:13:53;6.13;;;4.50;;
7669;SDS011;3877;42.562;27.636;2023-03-03T03:16:20;7.67;;;4.33;;
7669;SDS011;3877;42.562;27.636;2023-03-03T03:18:49;10.40;;;4.30;;
7669;SDS011;3877;42.562;27.636;2023-03-03T03:21:17;8.47;;;4.40;;
7669;SDS011;3877;42.562;27.636;2023-03-03T03:23:44;9.83;;;4.70;;
7669;SDS011;3877;42.562;27.636;2023-03-03T03:26:11;6.93;;;3.97;;
7669;SDS011;3877;42.562;27.636;2023-03-03T03:28:39;8.10;;;4.50;;
7669;SDS011;3877;42.562;27.636;2023-03-03T03:31:06;7.23;;;4.47;;
7669;SDS011;3877;42.562;27.636;2023-03-03T03:33:34;5.83;;;3.73;;
7669;SDS011;3877;42.562;27.636;2023-03-03T03:36:03;6.60;;;4.70;;
7669;SDS011;3877;42.562;27.636;2023-03-03T03:38:32;7.07;;;4.20;;
7669;SDS011;3877;42.562;27.636;2023-03-03T03:41:01;9.07;;;4.70;;
7669;SDS011;3877;42.562;27.636;2023-03-03T03:43:29;7.90;;;4.43;;
7669;SDS011;3877;42.562;27.636;2023-03-03T03:45:57;8.30;;;4.33;;
7669;SDS011;3877;42.562;27.636;2023-03-03T03:48:24;10.30;;;4.23;;
7669;SDS011;3877;42.562;27.636;2023-03-03T03:50:51;6.13;;;4.00;;
7669;SDS011;3877;42.562;27.636;2023-03-03T03:53:20;5.57;;;3.80;;
7669;SDS011;3877;42.562;27.636;2023-03-03T03:55:47;8.30;;;4.60;;
7669;SDS011;3877;42.562;27.636;2023-03-03T03:58:15;8.50;;;4.40;;
7669;SDS011;3877;42.562;27.636;2023-03-03T04:00:43;7.47;;;3.90;;
7669;SDS011;3877;42.562;27.636;2023-03-03T04:03:11;5.40;;;3.77;;
7669;SDS011;3877;42.562;27.636;2023-03-03T04:05:39;6.93;;;4.20;;
7669;SDS011;3877;42.562;27.636;2023-03-03T04:08:06;7.33;;;4.47;;
7669;SDS011;3877;42.562;27.636;2023-03-03T04:10:35;6.57;;;4.50;;
7669;SDS011;3877;42.562;27.636;2023-03-03T04:13:03;6.03;;;4.00;;
7669;SDS011;3877;42.562;27.636;2023-03-03T04:15:30;10.40;;;4.53;;
7669;SDS011;3877;42.562;27.636;2023-03-03T04:17:57;9.40;;;4.97;;
7669;SDS011;3877;42.562;27.636;2023-03-03T04:20:24;11.40;;;6.57;;
7669;SDS011;3877;42.562;27.636;2023-03-03T04:22:51;13.80;;;7.30;;
7669;SDS011;3877;42.562;27.636;2023-03-03T04:25:19;13.17;;;7.57;;
7669;SDS011;3877;42.562;27.636;2023-03-03T04:27:48;13.37;;;6.83;;
7669;SDS011;3877;42.562;27.636;2023-03-03T04:30:15;12.47;;;6.50;;
7669;SDS011;3877;42.562;27.636;2023-03-03T04:32:43;11.70;;;6.80;;
7669;SDS011;3877;42.562;27.636;2023-03-03T04:35:10;10.90;;;6.07;;
7669;SDS011;3877;42.562;27.636;2023-03-03T04:37:37;12.40;;;6.03;;
7669;SDS011;3877;42.562;27.636;2023-03-03T04:40:06;10.87;;;5.53;;
7669;SDS011;3877;42.562;27.636;2023-03-03T04:42:34;7.93;;;5.03;;
7669;SDS011;3877;42.562;27.636;2023-03-03T04:45:03;10.27;;;5.00;;
7669;SDS011;3877;42.562;27.636;2023-03-03T04:47:31;10.17;;;5.07;;
7669;SDS011;3877;42.562;27.636;2023-03-03T04:49:59;11.60;;;5.30;;
7669;SDS011;3877;42.562;27.636;2023-03-03T04:52:26;8.17;;;4.83;;
7669;SDS011;3877;42.562;27.636;2023-03-03T04:54:54;7.47;;;4.60;;
7669;SDS011;3877;42.562;27.636;2023-03-03T04:57:21;10.23;;;5.10;;
7669;SDS011;3877;42.562;27.636;2023-03-03T04:59:48;6.93;;;4.70;;
7669;SDS011;3877;42.562;27.636;2023-03-03T05:02:17;8.17;;;4.60;;
7669;SDS011;3877;42.562;27.636;2023-03-03T05:04:44;7.80;;;4.83;;
7669;SDS011;3877;42.562;27.636;2023-03-03T05:07:11;8.03;;;4.83;;
7669;SDS011;3877;42.562;27.636;2023-03-03T05:09:38;7.07;;;4.73;;
7669;SDS011;3877;42.562;27.636;2023-03-03T05:12:06;13.17;;;4.70;;
7669;SDS011;3877;42.562;27.636;2023-03-03T05:14:33;7.40;;;4.33;;
7669;SDS011;3877;42.562;27.636;2023-03-03T05:17:00;8.17;;;4.63;;
7669;SDS011;3877;42.562;27.636;2023-03-03T05:19:30;9.97;;;5.17;;
7669;SDS011;3877;42.562;27.636;2023-03-03T05:21:59;12.63;;;4.50;;
7669;SDS011;3877;42.562;27.636;2023-03-03T05:24:26;10.87;;;4.93;;
7669;SDS011;3877;42.562;27.636;2023-03-03T05:26:53;12.03;;;6.70;;
7669;SDS011;3877;42.562;27.636;2023-03-03T05:29:21;15.43;;;9.60;;
7669;SDS011;3877;42.562;27.636;2023-03-03T05:31:48;8.90;;;4.90;;
7669;SDS011;3877;42.562;27.636;2023-03-03T05:34:15;11.90;;;4.67;;
7669;SDS011;3877;42.562;27.636;2023-03-03T05:36:44;8.67;;;4.90;;
7669;SDS011;3877;42.562;27.636;2023-03-03T05:39:11;11.90;;;7.17;;
7669;SDS011;3877;42.562;27.636;2023-03-03T05:41:38;12.07;;;5.57;;
7669;SDS011;3877;42.562;27.636;2023-03-03T05:44:05;7.73;;;4.50;;
7669;SDS011;3877;42.562;27.636;2023-03-03T05:46:33;6.87;;;4.70;;
7669;SDS011;3877;42.562;27.636;2023-03-03T05:49:00;10.30;;;5.50;;
7669;SDS011;3877;42.562;27.636;2023-03-03T05:51:28;12.43;;;6.70;;
7669;SDS011;3877;42.562;27.636;2023-03-03T05:53:59;9.87;;;4.60;;
7669;SDS011;3877;42.562;27.636;2023-03-03T05:56:26;6.17;;;4.77;;
7669;SDS011;3877;42.562;27.636;2023-03-03T05:58:53;10.47;;;6.27;;
7669;SDS011;3877;42.562;27.636;2023-03-03T06:01:20;7.97;;;5.23;;
7669;SDS011;3877;42.562;27.636;2023-03-03T06:03:49;10.67;;;5.13;;
7669;SDS011;3877;42.562;27.636;2023-03-03T06:06:16;12.37;;;5.60;;
7669;SDS011;3877;42.562;27.636;2023-03-03T06:08:43;10.13;;;4.77;;
7669;SDS011;3877;42.562;27.636;2023-03-03T06:11:12;6.63;;;4.63;;
7669;SDS011;3877;42.562;27.636;2023-03-03T06:13:40;6.43;;;4.10;;
7669;SDS011;3877;42.562;27.636;2023-03-03T06:16:08;9.97;;;4.37;;
7669;SDS011;3877;42.562;27.636;2023-03-03T06:18:35;7.37;;;4.80;;
7669;SDS011;3877;42.562;27.636;2023-03-03T06:21:02;9.70;;;4.90;;
7669;SDS011;3877;42.562;27.636;2023-03-03T06:23:30;9.57;;;4.50;;
7669;SDS011;3877;42.562;27.636;2023-03-03T06:25:57;6.70;;;4.60;;
7669;SDS011;3877;42.562;27.636;2023-03-03T06:28:25;10.33;;;4.87;;
7669;SDS011;3877;42.562;27.636;2023-03-03T06:30:53;10.57;;;5.50;;
7669;SDS011;3877;42.562;27.636;2023-03-03T06:33:20;5.80;;;4.33;;
7669;SDS011;3877;42.562;27.636;2023-03-03T06:35:48;11.63;;;5.97;;
7669;SDS011;3877;42.562;27.636;2023-03-03T06:38:16;17.70;;;6.63;;
7669;SDS011;3877;42.562;27.636;2023-03-03T06:40:43;16.10;;;7.27;;
7669;SDS011;3877;42.562;27.636;2023-03-03T06:43:11;10.90;;;6.70;;
7669;SDS011;3877;42.562;27.636;2023-03-03T06:45:39;8.53;;;5.73;;
7669;SDS011;3877;42.562;27.636;2023-03-03T06:48:07;12.67;;;6.77;;
7669;SDS011;3877;42.562;27.636;2023-03-03T06:50:34;11.90;;;6.17;;
7669;SDS011;3877;42.562;27.636;2023-03-03T06:53:06;12.83;;;6.83;;
7669;SDS011;3877;42.562;27.636;2023-03-03T06:55:37;10.87;;;6.30;;
7669;SDS011;3877;42.562;27.636;2023-03-03T06:58:07;9.97;;;6.23;;
7669;SDS011;3877;42.562;27.636;2023-03-03T07:00:39;9.53;;;6.13;;
7669;SDS011;3877;42.562;27.636;2023-03-03T07:03:11;14.13;;;7.47;;
7669;SDS011;3877;42.562;27.636;2023-03-03T07:05:40;11.50;;;6.63;;
7669;SDS011;3877;42.562;27.636;2023-03-03T07:08:09;12.60;;;7.33;;
7669;SDS011;3877;42.562;27.636;2023-03-03T07:10:40;10.87;;;6.70;;
7669;SDS011;3877;42.562;27.636;2023-03-03T07:13:15;8.80;;;6.53;;
7669;SDS011;3877;42.562;27.636;2023-03-03T07:15:47;11.27;;;7.30;;
7669;SDS011;3877;42.562;27.636;2023-03-03T07:18:24;11.60;;;6.97;;
7669;SDS011;3877;42.562;27.636;2023-03-03T07:21:05;11.83;;;7.33;;
7669;SDS011;3877;42.562;27.636;2023-03-03T07:23:40;12.47;;;7.23;;
7669;SDS011;3877;42.562;27.636;2023-03-03T07:26:08;11.67;;;6.80;;
7669;SDS011;3877;42.562;27.636;2023-03-03T07:28:39;12.17;;;7.17;;
7669;SDS011;3877;42.562;27.636;2023-03-03T07:31:28;10.47;;;6.73;;
7669;SDS011;3877;42.562;27.636;2023-03-03T07:33:59;10.33;;;6.43;;
7669;SDS011;3877;42.562;27.636;2023-03-03T07:36:28;14.47;;;6.90;;
7669;SDS011;3877;42.562;27.636;2023-03-03T07:38:58;10.87;;;6.10;;
7669;SDS011;3877;42.562;27.636;2023-03-03T07:41:26;9.10;;;5.93;;
7669;SDS011;3877;42.562;27.636;2023-03-03T07:43:57;14.70;;;5.87;;
7669;SDS011;3877;42.562;27.636;2023-03-03T07:46:33;8.47;;;5.40;;
7669;SDS011;3877;42.562;27.636;2023-03-03T07:49:11;8.07;;;5.63;;
7669;SDS011;3877;42.562;27.636;2023-03-03T07:51:47;9.80;;;5.43;;
7669;SDS011;3877;42.562;27.636;2023-03-03T07:54:26;10.50;;;4.80;;
7669;SDS011;3877;42.562;27.636;2023-03-03T07:56:56;9.17;;;5.40;;
7669;SDS011;3877;42.562;27.636;2023-03-03T07:59:26;8.43;;;4.93;;
7669;SDS011;3877;42.562;27.636;2023-03-03T08:01:55;8.47;;;5.10;;
7669;SDS011;3877;42.562;27.636;2023-03-03T08:04:27;9.40;;;5.80;;
7669;SDS011;3877;42.562;27.636;2023-03-03T08:06:57;10.27;;;4.70;;
7669;SDS011;3877;42.562;27.636;2023-03-03T08:09:37;8.57;;;5.03;;
7669;SDS011;3877;42.562;27.636;2023-03-03T08:15:14;8.03;;;5.33;;
7669;SDS011;3877;42.562;27.636;2023-03-03T08:17:46;7.13;;;5.30;;
7669;SDS011;3877;42.562;27.636;2023-03-03T08:23:07;7.47;;;4.80;;
7669;SDS011;3877;42.562;27.636;2023-03-03T08:25:34;7.73;;;4.83;;
7669;SDS011;3877;42.562;27.636;2023-03-03T08:28:02;9.67;;;5.30;;
7669;SDS011;3877;42.562;27.636;2023-03-03T08:30:29;9.20;;;5.00;;
7669;SDS011;3877;42.562;27.636;2023-03-03T08:32:58;8.00;;;5.20;;
7669;SDS011;3877;42.562;27.636;2023-03-03T08:35:25;10.10;;;6.87;;
7669;SDS011;3877;42.562;27.636;2023-03-03T08:37:53;12.53;;;5.97;;
7669;SDS011;3877;42.562;27.636;2023-03-03T08:40:20;7.87;;;4.87;;
7669;SDS011;3877;42.562;27.636;2023-03-03T08:42:47;10.60;;;5.10;;
7669;SDS011;3877;42.562;27.636;2023-03-03T08:45:14;8.10;;;4.87;;
7669;SDS011;3877;42.562;27.636;2023-03-03T08:47:42;9.37;;;5.30;;
7669;SDS011;3877;42.562;27.636;2023-03-03T08:50:11;7.93;;;4.90;;
7669;SDS011;3877;42.562;27.636;2023-03-03T08:52:39;10.50;;;5.60;;
7669;SDS011;3877;42.562;27.636;2023-03-03T08:55:06;8.63;;;5.33;;
7669;SDS011;3877;42.562;27.636;2023-03-03T08:57:34;8.87;;;5.03;;
7669;SDS011;3877;42.562;27.636;2023-03-03T09:00:01;10.27;;;5.40;;
7669;SDS011;3877;42.562;27.636;2023-03-03T09:02:29;10.93;;;5.60;;
7669;SDS011;3877;42.562;27.636;2023-03-03T09:04:56;7.97;;;4.87;;
7669;SDS011;3877;42.562;27.636;2023-03-03T09:07:24;10.30;;;5.87;;
7669;SDS011;3877;42.562;27.636;2023-03-03T09:09:52;9.53;;;5.43;;
7669;SDS011;3877;42.562;27.636;2023-03-03T09:12:21;7.60;;;5.20;;
7669;SDS011;3877;42.562;27.636;2023-03-03T09:14:55;9.13;;;5.13;;
7669;SDS011;3877;42.562;27.636;2023-03-03T09:17:24;7.83;;;5.03;;
7669;SDS011;3877;42.562;27.636;2023-03-03T09:19:54;12.53;;;5.50;;
7669;SDS011;3877;42.562;27.636;2023-03-03T09:22:26;5.67;;;4.67;;
7669;SDS011;3877;42.562;27.636;2023-03-03T09:24:56;8.73;;;5.13;;
7669;SDS011;3877;42.562;27.636;2023-03-03T09:27:26;7.57;;;4.60;;
7669;SDS011;3877;42.562;27.636;2023-03-03T09:29:54;7.13;;;5.20;;
7669;SDS011;3877;42.562;27.636;2023-03-03T09:32:30;8.93;;;5.47;;
7669;SDS011;3877;42.562;27.636;2023-03-03T09:35:01;7.77;;;4.87;;
7669;SDS011;3877;42.562;27.636;2023-03-03T09:38:01;9.07;;;5.20;;
7669;SDS011;3877;42.562;27.636;2023-03-03T09:40:46;9.47;;;5.40;;
7669;SDS011;3877;42.562;27.636;2023-03-03T09:43:22;22.80;;;6.07;;
7669;SDS011;3877;42.562;27.636;2023-03-03T09:45:57;8.00;;;5.40;;
7669;SDS011;3877;42.562;27.636;2023-03-03T09:48:31;8.37;;;4.93;;
7669;SDS011;3877;42.562;27.636;2023-03-03T09:51:49;9.90;;;5.97;;
7669;SDS011;3877;42.562;27.636;2023-03-03T09:54:30;12.80;;;6.27;;
7669;SDS011;3877;42.562;27.636;2023-03-03T09:57:14;13.43;;;7.40;;
7669;SDS011;3877;42.562;27.636;2023-03-03T09:59:55;12.20;;;5.60;;
7669;SDS011;3877;42.562;27.636;2023-03-03T10:02:37;14.00;;;6.00;;
7669;SDS011;3877;42.562;27.636;2023-03-03T10:05:23;8.03;;;5.27;;
7669;SDS011;3877;42.562;27.636;2023-03-03T10:08:01;9.40;;;5.40;;
7669;SDS011;3877;42.562;27.636;2023-03-03T10:10:52;6.73;;;4.97;;
7669;SDS011;3877;42.562;27.636;2023-03-03T10:13:30;8.17;;;5.50;;
7669;SDS011;3877;42.562;27.636;2023-03-03T10:16:15;8.10;;;5.07;;
7669;SDS011;3877;42.562;27.636;2023-03-03T10:18:57;7.53;;;5.40;;
7669;SDS011;3877;42.562;27.636;2023-03-03T10:21:29;20.80;;;6.30;;
7669;SDS011;3877;42.562;27.636;2023-03-03T10:24:04;7.93;;;5.63;;
7669;SDS011;3877;42.562;27.636;2023-03-03T10:26:50;9.07;;;5.47;;
7669;SDS011;3877;42.562;27.636;2023-03-03T10:29:34;10.33;;;6.13;;
7669;SDS011;3877;42.562;27.636;2023-03-03T10:32:17;8.17;;;5.37;;
7669;SDS011;3877;42.562;27.636;2023-03-03T10:38:03;8.67;;;5.70;;
7669;SDS011;3877;42.562;27.636;2023-03-03T10:40:53;9.57;;;5.47;;
7669;SDS011;3877;42.562;27.636;2023-03-03T10:43:39;8.60;;;5.37;;
7669;SDS011;3877;42.562;27.636;2023-03-03T10:49:19;8.37;;;6.03;;
7669;SDS011;3877;42.562;27.636;2023-03-03T10:51:57;9.93;;;6.80;;
7669;SDS011;3877;42.562;27.636;2023-03-03T10:54:44;8.67;;;5.87;;
7669;SDS011;3877;42.562;27.636;2023-03-03T10:57:22;10.77;;;5.70;;
7669;SDS011;3877;42.562;27.636;2023-03-03T11:00:06;9.57;;;5.77;;
7669;SDS011;3877;42.562;27.636;2023-03-03T11:02:45;12.87;;;7.73;;
7669;SDS011;3877;42.562;27.636;2023-03-03T11:05:28;10.67;;;6.13;;
7669;SDS011;3877;42.562;27.636;2023-03-03T11:08:00;10.77;;;5.83;;
7669;SDS011;3877;42.562;27.636;2023-03-03T11:10:36;15.97;;;6.43;;
7669;SDS011;3877;42.562;27.636;2023-03-03T11:13:16;8.53;;;5.80;;
7669;SDS011;3877;42.562;27.636;2023-03-03T11:15:53;11.13;;;5.90;;
7669;SDS011;3877;42.562;27.636;2023-03-03T11:18:33;9.60;;;5.60;;
7669;SDS011;3877;42.562;27.636;2023-03-03T11:21:12;7.77;;;5.63;;
7669;SDS011;3877;42.562;27.636;2023-03-03T11:23:59;7.93;;;5.60;;
7669;SDS011;3877;42.562;27.636;2023-03-03T11:26:43;12.57;;;6.00;;
7669;SDS011;3877;42.562;27.636;2023-03-03T11:29:23;13.60;;;5.83;;
7669;SDS011;3877;42.562;27.636;2023-03-03T11:32:02;8.67;;;5.57;;
7669;SDS011;3877;42.562;27.636;2023-03-03T11:34:44;13.17;;;6.10;;
7669;SDS011;3877;42.562;27.636;2023-03-03T11:37:21;12.80;;;6.63;;
7669;SDS011;3877;42.562;27.636;2023-03-03T11:39:53;9.37;;;6.33;;
7669;SDS011;3877;42.562;27.636;2023-03-03T11:42:24;11.00;;;6.13;;
7669;SDS011;3877;42.562;27.636;2023-03-03T11:44:54;13.40;;;6.33;;
7669;SDS011;3877;42.562;27.636;2023-03-03T11:47:28;8.43;;;6.30;;
7669;SDS011;3877;42.562;27.636;2023-03-03T11:50:01;9.33;;;6.50;;
7669;SDS011;3877;42.562;27.636;2023-03-03T11:52:31;10.33;;;6.33;;
7669;SDS011;3877;42.562;27.636;2023-03-03T11:55:11;10.50;;;6.37;;
7669;SDS011;3877;42.562;27.636;2023-03-03T11:57:41;8.67;;;5.97;;
7669;SDS011;3877;42.562;27.636;2023-03-03T12:00:17;10.23;;;7.00;;
7669;SDS011;3877;42.562;27.636;2023-03-03T12:03:03;16.03;;;6.27;;
7669;SDS011;3877;42.562;27.636;2023-03-03T12:05:52;8.63;;;6.57;;
7669;SDS011;3877;42.562;27.636;2023-03-03T12:08:25;14.70;;;6.73;;
7669;SDS011;3877;42.562;27.636;2023-03-03T12:11:00;13.07;;;7.97;;
7669;SDS011;3877;42.562;27.636;2023-03-03T12:13:38;9.33;;;7.00;;
7669;SDS011;3877;42.562;27.636;2023-03-03T12:16:23;13.13;;;7.97;;
7669;SDS011;3877;42.562;27.636;2023-03-03T12:19:10;15.17;;;8.63;;
7669;SDS011;3877;42.562;27.636;2023-03-03T12:21:57;20.73;;;12.60;;
7669;SDS011;3877;42.562;27.636;2023-03-03T12:24:37;11.10;;;7.27;;
7669;SDS011;3877;42.562;27.636;2023-03-03T12:27:21;13.33;;;8.00;;
7669;SDS011;3877;42.562;27.636;2023-03-03T12:29:58;10.70;;;7.83;;
7669;SDS011;3877;42.562;27.636;2023-03-03T12:32:36;11.27;;;7.80;;
7669;SDS011;3877;42.562;27.636;2023-03-03T12:35:17;12.23;;;8.50;;
7669;SDS011;3877;42.562;27.636;2023-03-03T12:37:53;14.43;;;8.13;;
7669;SDS011;3877;42.562;27.636;2023-03-03T12:40:25;29.87;;;17.63;;
7669;SDS011;3877;42.562;27.636;2023-03-03T12:43:01;14.20;;;7.87;;
7669;SDS011;3877;42.562;27.636;2023-03-03T12:45:36;16.00;;;8.53;;
7669;SDS011;3877;42.562;27.636;2023-03-03T12:48:15;17.70;;;11.33;;
7669;SDS011;3877;42.562;27.636;2023-03-03T12:50:52;12.00;;;8.10;;
7669;SDS011;3877;42.562;27.636;2023-03-03T12:53:50;9.97;;;7.73;;
7669;SDS011;3877;42.562;27.636;2023-03-03T12:56:27;13.63;;;8.10;;
7669;SDS011;3877;42.562;27.636;2023-03-03T12:59:05;14.87;;;8.30;;
7669;SDS011;3877;42.562;27.636;2023-03-03T13:01:47;11.97;;;8.10;;
7669;SDS011;3877;42.562;27.636;2023-03-03T13:04:30;9.83;;;7.17;;
7669;SDS011;3877;42.562;27.636;2023-03-03T13:07:05;19.17;;;11.90;;
7669;SDS011;3877;42.562;27.636;2023-03-03T13:09:45;11.27;;;7.50;;
7669;SDS011;3877;42.562;27.636;2023-03-03T13:12:36;13.73;;;7.33;;
7669;SDS011;3877;42.562;27.636;2023-03-03T13:15:09;13.23;;;8.17;;
7669;SDS011;3877;42.562;27.636;2023-03-03T13:17:42;10.53;;;6.70;;
7669;SDS011;3877;42.562;27.636;2023-03-03T13:20:18;12.57;;;7.50;;
7669;SDS011;3877;42.562;27.636;2023-03-03T13:22:54;11.17;;;7.23;;
7669;SDS011;3877;42.562;27.636;2023-03-03T13:25:33;13.23;;;6.97;;
7669;SDS011;3877;42.562;27.636;2023-03-03T13:28:10;11.97;;;7.70;;
7669;SDS011;3877;42.562;27.636;2023-03-03T13:30:46;7.73;;;6.27;;
7669;SDS011;3877;42.562;27.636;2023-03-03T13:33:15;10.53;;;6.30;;
7669;SDS011;3877;42.562;27.636;2023-03-03T13:35:47;13.77;;;7.30;;
7669;SDS011;3877;42.562;27.636;2023-03-03T13:38:21;11.10;;;7.60;;
7669;SDS011;3877;42.562;27.636;2023-03-03T13:40:53;8.50;;;6.73;;
7669;SDS011;3877;42.562;27.636;2023-03-03T13:43:27;12.63;;;7.67;;
7669;SDS011;3877;42.562;27.636;2023-03-03T13:46:01;10.67;;;7.77;;
7669;SDS011;3877;42.562;27.636;2023-03-03T13:48:36;13.30;;;8.60;;
7669;SDS011;3877;42.562;27.636;2023-03-03T13:51:20;12.27;;;8.00;;
7669;SDS011;3877;42.562;27.636;2023-03-03T13:54:00;10.57;;;7.73;;
7669;SDS011;3877;42.562;27.636;2023-03-03T13:56:36;15.33;;;8.97;;
7669;SDS011;3877;42.562;27.636;2023-03-03T13:59:31;14.93;;;9.53;;
7669;SDS011;3877;42.562;27.636;2023-03-03T14:02:18;13.27;;;8.47;;
7669;SDS011;3877;42.562;27.636;2023-03-03T14:05:00;15.57;;;7.53;;
7669;SDS011;3877;42.562;27.636;2023-03-03T14:07:32;10.53;;;7.43;;
7669;SDS011;3877;42.562;27.636;2023-03-03T14:10:06;19.00;;;8.83;;
7669;SDS011;3877;42.562;27.636;2023-03-03T14:12:41;13.97;;;7.90;;
7669;SDS011;3877;42.562;27.636;2023-03-03T14:15:15;14.03;;;7.87;;
7669;SDS011;3877;42.562;27.636;2023-03-03T14:17:53;14.13;;;8.40;;
7669;SDS011;3877;42.562;27.636;2023-03-03T14:20:28;16.60;;;7.93;;
7669;SDS011;3877;42.562;27.636;2023-03-03T14:22:58;16.63;;;8.10;;
7669;SDS011;3877;42.562;27.636;2023-03-03T14:25:48;10.90;;;7.40;;
7669;SDS011;3877;42.562;27.636;2023-03-03T14:28:19;12.63;;;7.40;;
7669;SDS011;3877;42.562;27.636;2023-03-03T14:30:48;12.97;;;7.87;;
7669;SDS011;3877;42.562;27.636;2023-03-03T14:33:19;14.20;;;8.80;;
7669;SDS011;3877;42.562;27.636;2023-03-03T14:35:50;11.10;;;7.67;;
7669;SDS011;3877;42.562;27.636;2023-03-03T14:38:40;11.23;;;8.00;;
7669;SDS011;3877;42.562;27.636;2023-03-03T14:41:14;12.73;;;8.90;;
7669;SDS011;3877;42.562;27.636;2023-03-03T14:43:43;19.10;;;11.50;;
7669;SDS011;3877;42.562;27.636;2023-03-03T14:46:32;12.10;;;8.70;;
7669;SDS011;3877;42.562;27.636;2023-03-03T14:49:05;16.17;;;11.03;;
7669;SDS011;3877;42.562;27.636;2023-03-03T14:51:40;13.57;;;9.10;;
7669;SDS011;3877;42.562;27.636;2023-03-03T14:54:13;20.80;;;12.00;;
7669;SDS011;3877;42.562;27.636;2023-03-03T14:56:58;15.43;;;9.83;;
7669;SDS011;3877;42.562;27.636;2023-03-03T14:59:29;12.67;;;9.67;;
7669;SDS011;3877;42.562;27.636;2023-03-03T15:02:04;13.03;;;8.97;;
7669;SDS011;3877;42.562;27.636;2023-03-03T15:05:05;23.97;;;13.93;;
7669;SDS011;3877;42.562;27.636;2023-03-03T15:07:45;48.93;;;26.77;;
7669;SDS011;3877;42.562;27.636;2023-03-03T15:10:25;24.93;;;15.43;;
7669;SDS011;3877;42.562;27.636;2023-03-03T15:12:56;12.97;;;9.80;;
7669;SDS011;3877;42.562;27.636;2023-03-03T15:15:23;12.37;;;10.00;;
7669;SDS011;3877;42.562;27.636;2023-03-03T15:17:55;18.37;;;10.03;;
7669;SDS011;3877;42.562;27.636;2023-03-03T15:20:31;14.87;;;10.17;;
7669;SDS011;3877;42.562;27.636;2023-03-03T15:23:07;14.30;;;9.50;;
7669;SDS011;3877;42.562;27.636;2023-03-03T15:25:44;14.10;;;9.63;;
7669;SDS011;3877;42.562;27.636;2023-03-03T15:28:24;15.77;;;10.37;;
7669;SDS011;3877;42.562;27.636;2023-03-03T15:31:00;18.27;;;12.07;;
7669;SDS011;3877;42.562;27.636;2023-03-03T15:33:31;15.47;;;9.60;;
7669;SDS011;3877;42.562;27.636;2023-03-03T15:36:07;14.27;;;9.03;;
7669;SDS011;3877;42.562;27.636;2023-03-03T15:38:42;12.40;;;9.27;;
7669;SDS011;3877;42.562;27.636;2023-03-03T15:41:18;14.27;;;10.67;;